M I D A S
Marine Information and Data Acquisition System
Tripno 1886 of the Zeeleeuw from 2010-05-25 07:47:05 to 2010-05-25 14:29:09
Back to CruiseResearch ActivitiesStationsMapUnderway DataData graphs

EquipmentUnitsComment
TimeDGPSUTC
LatitudeDGPSDM.mWGS84
LongitudeDGPSDM.mWGS84
HeadingGyrodeg 
SOGDGPSknotsSpeed over ground
COGDGPSdegCourse over ground
DepthEcho soundermeters200 kHz
Missing or incorrect values are displayed as -999
Navigation data collected by the RV Zeeleeuw from 2010-05-25 07:35:30 to 2010-05-25 14:38:49
                                                                                    Next 1000 lines
Time Latitude Longitude Heading SOG COG Depth
2010-05-25 07:35:40 51°13.661 2°55.96 114.4 0.1 204 6.8
2010-05-25 07:35:45 51°13.661 2°55.96 113.4 0.1 212 6.7
2010-05-25 07:35:50 51°13.661 2°55.96 112.6 -999 239 6.8
2010-05-25 07:35:55 51°13.661 2°55.96 111.8 0.1 254 6.8
2010-05-25 07:36:00 51°13.66 2°55.96 111.1 0.1 260 6.8
2010-05-25 07:36:05 51°13.661 2°55.959 110.7 0.4 289 6.7
2010-05-25 07:36:10 51°13.661 2°55.957 110.3 0.8 288 6.8
2010-05-25 07:36:15 51°13.662 2°55.954 109.9 1.3 289 6.8
2010-05-25 07:36:20 51°13.663 2°55.95 109.7 1.9 291 6.9
2010-05-25 07:36:25 51°13.664 2°55.946 109.7 2.3 290 7
2010-05-25 07:36:30 51°13.665 2°55.94 109.7 2.8 290 -999
2010-05-25 07:36:36 51°13.667 2°55.932 109.5 3.2 290 -999
2010-05-25 07:36:41 51°13.669 2°55.925 109 3.6 289 -999
2010-05-25 07:36:47 51°13.671 2°55.915 108.6 3.9 288 -999
2010-05-25 07:36:52 51°13.672 2°55.907 108.2 4.1 287 -999
2010-05-25 07:36:58 51°13.675 2°55.896 107.7 4.4 288 -999
2010-05-25 07:37:03 51°13.677 2°55.886 107.5 4.5 287 -999
2010-05-25 07:37:08 51°13.678 2°55.877 107 4.4 287 -999
2010-05-25 07:37:13 51°13.68 2°55.868 106.8 4.5 287 -999
2010-05-25 07:37:18 51°13.682 2°55.858 106.5 4.4 286 -999
2010-05-25 07:37:23 51°13.683 2°55.849 105.9 4.4 286 -999
2010-05-25 07:37:28 51°13.685 2°55.84 105.3 4.3 285 -999
2010-05-25 07:37:33 51°13.686 2°55.831 104.6 4.3 286 -999
2010-05-25 07:37:38 51°13.688 2°55.822 103.9 4.1 285 -999
2010-05-25 07:37:43 51°13.689 2°55.813 103.1 4 284 -999
2010-05-25 07:37:48 51°13.691 2°55.805 102.4 3.9 284 -999
2010-05-25 07:37:53 51°13.692 2°55.797 101.4 3.7 283 -999
2010-05-25 07:37:58 51°13.693 2°55.789 100.4 3.6 283 -999
2010-05-25 07:38:03 51°13.694 2°55.782 99.4 3.4 282 12.3
2010-05-25 07:38:08 51°13.695 2°55.775 98.5 3.4 281 12.7
2010-05-25 07:38:12 51°13.695 2°55.769 97.8 3.3 282 13.1
2010-05-25 07:38:17 51°13.696 2°55.762 96.4 3.2 281 13.5
2010-05-25 07:38:22 51°13.697 2°55.756 95 2.9 281 13.7
2010-05-25 07:38:27 51°13.698 2°55.751 93.7 2.3 281 13.2
2010-05-25 07:38:32 51°13.698 2°55.747 91.8 1.7 283 13.1
2010-05-25 07:38:36 51°13.698 2°55.745 88.6 1.2 288 13
2010-05-25 07:38:41 51°13.699 2°55.743 85.4 0.8 295 13
2010-05-25 07:38:46 51°13.699 2°55.743 79.6 0.5 317 13.1
2010-05-25 07:38:51 51°13.7 2°55.743 75.6 0.5 350 13.1
2010-05-25 07:38:56 51°13.701 2°55.743 69.4 0.6 3 13
2010-05-25 07:39:00 51°13.701 2°55.743 64.2 0.6 28 12.9
2010-05-25 07:39:05 51°13.702 2°55.744 60.1 0.7 19 13
2010-05-25 07:39:10 51°13.703 2°55.744 53.7 0.6 10 13
2010-05-25 07:39:15 51°13.704 2°55.744 49.8 0.4 331 13.2
2010-05-25 07:39:20 51°13.704 2°55.743 47 0.4 287 13.3
2010-05-25 07:39:24 51°13.704 2°55.742 42.6 0.7 250 13.2
2010-05-25 07:39:30 51°13.703 2°55.74 39.3 1 236 13.1
2010-05-25 07:39:35 51°13.701 2°55.737 36.6 1.4 229 12.9
2010-05-25 07:39:40 51°13.7 2°55.735 34.6 1.5 226 13.1
2010-05-25 07:39:44 51°13.699 2°55.733 31.8 1.5 222 13.1
2010-05-25 07:39:50 51°13.697 2°55.731 29.6 1.5 222 -999
2010-05-25 07:39:56 51°13.695 2°55.728 26.9 1.4 220 -999
2010-05-25 07:40:01 51°13.694 2°55.726 25.1 1.3 219 5
2010-05-25 07:40:07 51°13.692 2°55.725 23.6 0.8 225 -999
2010-05-25 07:40:12 51°13.693 2°55.724 21.8 0.4 277 -999
2010-05-25 07:40:18 51°13.693 2°55.723 18.4 0.6 340 -999
2010-05-25 07:40:23 51°13.695 2°55.723 12.2 1.1 351 13.6
2010-05-25 07:40:28 51°13.697 2°55.722 6.4 1.5 348 -999
2010-05-25 07:40:33 51°13.7 2°55.721 359.2 2.3 347 -999
2010-05-25 07:40:38 51°13.704 2°55.719 355.3 2.7 345 16.3
2010-05-25 07:40:43 51°13.707 2°55.718 351 3.2 343 -999
2010-05-25 07:40:48 51°13.712 2°55.715 348.9 3.5 342 -999
2010-05-25 07:40:53 51°13.717 2°55.713 346.8 4 342 12.7
2010-05-25 07:40:57 51°13.722 2°55.71 345.6 4.4 340 12.4
2010-05-25 07:41:02 51°13.728 2°55.707 344.7 4.7 341 12.7
2010-05-25 07:41:08 51°13.735 2°55.702 344.2 5 340 12.6
2010-05-25 07:41:12 51°13.741 2°55.699 343.9 5.2 339 12.6
2010-05-25 07:41:16 51°13.747 2°55.695 342.9 5.6 338 12.3
2010-05-25 07:41:21 51°13.754 2°55.69 342.1 5.8 337 12.1
2010-05-25 07:41:26 51°13.762 2°55.685 340.8 6 336 12
2010-05-25 07:41:31 51°13.77 2°55.68 339.5 6.3 336 12
2010-05-25 07:41:36 51°13.778 2°55.674 338.5 6.5 335 12
2010-05-25 07:41:40 51°13.785 2°55.669 338.3 6.7 335 11.9
2010-05-25 07:41:45 51°13.793 2°55.662 338.2 6.9 335 11.9
2010-05-25 07:41:50 51°13.802 2°55.656 337.8 7.1 335 11.9
2010-05-25 07:41:55 51°13.811 2°55.649 337.2 7.2 334 11.8
2010-05-25 07:42:00 51°13.82 2°55.642 336.6 7.3 334 11.8
2010-05-25 07:42:05 51°13.829 2°55.635 336.1 7.5 333 11.8
2010-05-25 07:42:10 51°13.839 2°55.627 335.4 7.6 333 11.8
2010-05-25 07:42:15 51°13.848 2°55.619 334.9 7.7 333 11.8
2010-05-25 07:42:20 51°13.857 2°55.611 334.6 7.8 332 11.8
2010-05-25 07:42:25 51°13.867 2°55.603 335 7.8 334 11.6
2010-05-25 07:42:30 51°13.877 2°55.595 336.3 7.9 334 11.4
2010-05-25 07:42:35 51°13.887 2°55.588 337.4 7.9 336 11.5
2010-05-25 07:42:40 51°13.897 2°55.581 337.9 8 336 11.6
2010-05-25 07:42:45 51°13.908 2°55.574 338.3 8 336 11.7
2010-05-25 07:42:50 51°13.918 2°55.567 338.6 8.1 336 11.8
2010-05-25 07:42:55 51°13.928 2°55.56 338.7 8.2 337 11.8
2010-05-25 07:43:00 51°13.939 2°55.552 339 8.2 336 11.7
2010-05-25 07:43:05 51°13.949 2°55.545 339 8.2 336 11.8
2010-05-25 07:43:10 51°13.959 2°55.538 338.9 8.2 335 11.7
2010-05-25 07:43:15 51°13.97 2°55.53 338.4 8.3 336 11.7
2010-05-25 07:43:20 51°13.98 2°55.523 338.4 8.3 336 11.7
2010-05-25 07:43:24 51°13.989 2°55.517 338.4 8.3 336 11.7
2010-05-25 07:43:30 51°14.002 2°55.508 338.4 8.4 336 11.7
2010-05-25 07:43:35 51°14.012 2°55.501 338.4 8.4 336 11.7
2010-05-25 07:43:40 51°14.023 2°55.493 338.5 8.4 336 11.7
2010-05-25 07:43:44 51°14.031 2°55.487 338.6 8.4 336 11.7
2010-05-25 07:43:50 51°14.044 2°55.477 338.8 8.5 336 11.7
2010-05-25 07:43:55 51°14.055 2°55.469 338.9 8.5 336 11.7
2010-05-25 07:44:00 51°14.065 2°55.461 338.9 8.4 335 11.7
2010-05-25 07:44:05 51°14.076 2°55.453 338.4 8.6 334 11.7
2010-05-25 07:44:09 51°14.085 2°55.447 337.6 8.6 333 11.7
2010-05-25 07:44:15 51°14.097 2°55.436 336.7 8.7 332 11.8
2010-05-25 07:44:20 51°14.108 2°55.427 335.7 8.8 332 11.7
2010-05-25 07:44:24 51°14.117 2°55.42 335.3 8.9 333 11.8
2010-05-25 07:44:30 51°14.13 2°55.409 335.4 9 333 11.7
2010-05-25 07:44:35 51°14.142 2°55.4 336 9.1 334 11.7
2010-05-25 07:44:40 51°14.153 2°55.391 336.5 9.2 334 11.7
2010-05-25 07:44:45 51°14.165 2°55.382 337.2 9.4 335 11.7
2010-05-25 07:44:50 51°14.177 2°55.373 337.5 9.4 334 11.7
2010-05-25 07:44:55 51°14.188 2°55.363 337.1 9.5 333 11.7
2010-05-25 07:45:00 51°14.2 2°55.354 336.3 9.6 333 11.7
2010-05-25 07:45:05 51°14.212 2°55.344 335.4 9.7 332 11.7
2010-05-25 07:45:10 51°14.224 2°55.333 334.2 9.8 330 11.6
2010-05-25 07:45:15 51°14.236 2°55.322 333 9.9 330 11.6
2010-05-25 07:45:20 51°14.248 2°55.311 332.6 10.1 330 11.6
2010-05-25 07:45:25 51°14.26 2°55.299 332.4 10.2 329 11.6
2010-05-25 07:45:30 51°14.272 2°55.287 332 10.3 329 11.6
2010-05-25 07:45:35 51°14.285 2°55.275 331.7 10.4 328 11.6
2010-05-25 07:45:40 51°14.297 2°55.263 331.4 10.5 328 11.6
2010-05-25 07:45:44 51°14.307 2°55.253 331.3 10.7 328 11.6
2010-05-25 07:45:50 51°14.322 2°55.238 331.2 10.8 328 11.6
2010-05-25 07:45:55 51°14.335 2°55.225 331.2 10.9 329 11.2
2010-05-25 07:46:00 51°14.348 2°55.213 331.8 11 330 11.1
2010-05-25 07:46:05 51°14.362 2°55.201 333.2 11 331 11.4
2010-05-25 07:46:10 51°14.375 2°55.189 333.7 11.1 329 11.2
2010-05-25 07:46:15 51°14.388 2°55.175 332.2 11.2 327 11
2010-05-25 07:46:20 51°14.401 2°55.161 329.4 11.3 324 11.1
2010-05-25 07:46:24 51°14.411 2°55.149 327.1 11.4 324 11.6
2010-05-25 07:46:30 51°14.426 2°55.13 325.7 11.4 322 11.6
2010-05-25 07:46:35 51°14.439 2°55.115 325.1 11.6 323 11.6
2010-05-25 07:46:40 51°14.452 2°55.099 325 11.7 323 12
2010-05-25 07:46:45 51°14.465 2°55.083 325 11.8 323 12.1
2010-05-25 07:46:49 51°14.475 2°55.071 325.8 11.9 324 12.1
2010-05-25 07:46:55 51°14.492 2°55.052 326.6 12.1 325 11.9
2010-05-25 07:47:00 51°14.506 2°55.037 327.4 12.2 326 12
2010-05-25 07:47:05 51°14.52 2°55.022 328.1 12.3 327 11.9
2010-05-25 07:47:10 51°14.535 2°55.008 329.1 12.5 328 12.3
2010-05-25 07:47:15 51°14.55 2°54.993 330.3 12.5 328 12.5
2010-05-25 07:47:20 51°14.565 2°54.978 331.1 12.6 328 12.5
2010-05-25 07:47:25 51°14.579 2°54.963 330.6 12.6 326 12.6
2010-05-25 07:47:30 51°14.593 2°54.946 328.9 12.7 323 12.3
2010-05-25 07:47:35 51°14.607 2°54.928 326.5 12.8 322 12.2
2010-05-25 07:47:40 51°14.621 2°54.91 324.9 12.9 320 12.3
2010-05-25 07:47:44 51°14.632 2°54.895 323.2 13 319 12.4
2010-05-25 07:47:50 51°14.648 2°54.872 322.1 13.1 318 12.3
2010-05-25 07:47:55 51°14.662 2°54.852 321.5 13.1 318 12.5
2010-05-25 07:48:00 51°14.676 2°54.833 322.3 13.2 319 12.8
2010-05-25 07:48:04 51°14.687 2°54.818 322.2 13.3 319 12.6
2010-05-25 07:48:10 51°14.703 2°54.795 321.8 13.3 319 12.4
2010-05-25 07:48:15 51°14.717 2°54.776 322 13.3 319 12.7
2010-05-25 07:48:20 51°14.731 2°54.757 322.4 13.3 321 12.9
2010-05-25 07:48:24 51°14.743 2°54.743 323.5 13.3 322 12.6
2010-05-25 07:48:30 51°14.761 2°54.722 325.2 13.2 325 12.4
2010-05-25 07:48:35 51°14.776 2°54.706 327.2 13.2 327 12.5
2010-05-25 07:48:40 51°14.791 2°54.691 328.9 13.1 328 12.6
2010-05-25 07:48:44 51°14.804 2°54.679 330.8 13.1 329 12.5
2010-05-25 07:48:50 51°14.822 2°54.66 331.3 13.2 327 12.7
2010-05-25 07:48:55 51°14.838 2°54.644 330.6 13.2 327 12.5
2010-05-25 07:49:00 51°14.853 2°54.627 329.4 13.2 325 12.6
2010-05-25 07:49:05 51°14.868 2°54.612 329.3 13.2 327 12.6
2010-05-25 07:49:10 51°14.883 2°54.595 329.4 13.3 325 12.6
2010-05-25 07:49:15 51°14.899 2°54.58 329.2 13.2 327 12.5
2010-05-25 07:49:20 51°14.914 2°54.564 329.6 13.2 327 12.4
2010-05-25 07:49:25 51°14.929 2°54.548 329.7 13.2 327 10.8
2010-05-25 07:49:30 51°14.944 2°54.531 329.7 13.1 326 10.9
2010-05-25 07:49:35 51°14.959 2°54.515 329.5 13 325 10.8
2010-05-25 07:49:40 51°14.974 2°54.499 329.1 13 326 10.7
2010-05-25 07:49:45 51°14.989 2°54.483 329.5 13.1 326 10.8
2010-05-25 07:49:50 51°15.004 2°54.467 329.6 13.1 325 10.9
2010-05-25 07:49:55 51°15.019 2°54.45 329.5 13.1 325 11
2010-05-25 07:50:00 51°15.034 2°54.434 329.4 13.1 327 11
2010-05-25 07:50:05 51°15.049 2°54.418 330 13 326 10.9
2010-05-25 07:50:10 51°15.064 2°54.401 330 13.1 323 11
2010-05-25 07:50:15 51°15.079 2°54.384 327.2 13.1 323 10.9
2010-05-25 07:50:20 51°15.093 2°54.366 326.1 13.1 322 11
2010-05-25 07:50:24 51°15.104 2°54.351 324.5 13.1 320 11.1
2010-05-25 07:50:30 51°15.121 2°54.329 323.5 13.1 321 11.1
2010-05-25 07:50:35 51°15.135 2°54.309 322.7 13.2 319 11.1
2010-05-25 07:50:40 51°15.148 2°54.29 321.8 13.2 318 11.1
2010-05-25 07:50:44 51°15.159 2°54.274 320.9 13.2 317 11.3
2010-05-25 07:50:50 51°15.175 2°54.25 320.1 13.3 317 11.3
2010-05-25 07:50:55 51°15.189 2°54.231 320 13.2 318 11.2
2010-05-25 07:51:00 51°15.203 2°54.212 321.2 13.2 319 11.4
2010-05-25 07:51:04 51°15.214 2°54.196 322.1 13.2 319 11.4
2010-05-25 07:51:10 51°15.231 2°54.175 323.5 13.2 321 11.3
2010-05-25 07:51:15 51°15.245 2°54.156 323.4 13.2 321 11.3
2010-05-25 07:51:20 51°15.26 2°54.138 323.8 13.2 322 11.4
2010-05-25 07:51:25 51°15.274 2°54.119 324.4 13.2 321 11.4
2010-05-25 07:51:30 51°15.288 2°54.101 324.4 13.3 321 11.4
2010-05-25 07:51:35 51°15.303 2°54.083 324.5 13.3 321 11.4
2010-05-25 07:51:40 51°15.317 2°54.065 324.3 13.2 322 11.5
2010-05-25 07:51:45 51°15.331 2°54.046 324.7 13.3 321 11.6
2010-05-25 07:51:50 51°15.345 2°54.028 324.4 13.2 320 11.6
2010-05-25 07:51:55 51°15.36 2°54.009 324.3 13.3 321 11.6
2010-05-25 07:52:00 51°15.374 2°53.991 324.5 13.2 321 11.4
2010-05-25 07:52:05 51°15.388 2°53.973 324.6 13.2 321 11.5
2010-05-25 07:52:10 51°15.402 2°53.954 324.6 13.2 321 11.7
2010-05-25 07:52:15 51°15.416 2°53.935 324.7 13.2 320 11.7
2010-05-25 07:52:20 51°15.43 2°53.917 324.6 13.2 320 11.6
2010-05-25 07:52:24 51°15.441 2°53.902 324.6 13.1 321 11.8
2010-05-25 07:52:30 51°15.458 2°53.88 324.7 13.2 320 11.8
2010-05-25 07:52:35 51°15.472 2°53.861 324.5 13.2 321 12
2010-05-25 07:52:40 51°15.487 2°53.843 325 13.2 321 11.8
2010-05-25 07:52:44 51°15.498 2°53.829 325.3 13.2 322 11.8
2010-05-25 07:52:50 51°15.516 2°53.807 325.6 13.2 322 12
2010-05-25 07:52:55 51°15.53 2°53.789 325.4 13.2 321 11.9
2010-05-25 07:53:00 51°15.544 2°53.771 325 13.2 321 11.9
2010-05-25 07:53:05 51°15.558 2°53.753 324.9 13.1 322 11.9
2010-05-25 07:53:10 51°15.572 2°53.735 325.2 13.1 322 12.1
2010-05-25 07:53:15 51°15.587 2°53.716 325.2 13.2 321 12.1
2010-05-25 07:53:20 51°15.601 2°53.698 325 13.2 321 12.1
2010-05-25 07:53:25 51°15.615 2°53.679 324.5 13.1 320 12.2
2010-05-25 07:53:30 51°15.629 2°53.661 324.7 13.2 322 12.2
2010-05-25 07:53:35 51°15.643 2°53.643 325 13.1 322 12.2
2010-05-25 07:53:40 51°15.658 2°53.626 325.2 13.1 323 12.4
2010-05-25 07:53:45 51°15.672 2°53.609 325.6 13.1 324 12.4
2010-05-25 07:53:50 51°15.687 2°53.592 326.9 13.1 324 12.4
2010-05-25 07:53:55 51°15.702 2°53.574 327 13.1 324 12.5
2010-05-25 07:54:00 51°15.717 2°53.558 328.1 13.1 325 12.5
2010-05-25 07:54:05 51°15.732 2°53.542 328.6 13.1 325 12.7
2010-05-25 07:54:10 51°15.747 2°53.526 329.6 13.1 327 12.7
2010-05-25 07:54:15 51°15.762 2°53.51 329.9 13 325 12.6
2010-05-25 07:54:20 51°15.777 2°53.494 330 13 327 12.8
2010-05-25 07:54:24 51°15.789 2°53.482 330.8 13 327 12.7
2010-05-25 07:54:30 51°15.807 2°53.463 331.8 13 328 12.8
2010-05-25 07:54:35 51°15.823 2°53.449 332.5 13 329 12.9
2010-05-25 07:54:40 51°15.839 2°53.434 333 13.1 329 12.8
2010-05-25 07:54:44 51°15.851 2°53.422 333.2 13.1 329 12.9
2010-05-25 07:54:50 51°15.87 2°53.405 333.2 13 329 12.8
2010-05-25 07:54:55 51°15.885 2°53.39 333.6 13 330 12.9
2010-05-25 07:55:00 51°15.901 2°53.376 334 13.1 331 12.7
2010-05-25 07:55:04 51°15.914 2°53.365 334 13 330 12.8
2010-05-25 07:55:10 51°15.932 2°53.348 334.2 13 331 12.9
2010-05-25 07:55:15 51°15.948 2°53.334 334.3 13 330 12.8
2010-05-25 07:55:20 51°15.963 2°53.319 333.9 13 329 12.8
2010-05-25 07:55:24 51°15.976 2°53.308 333.7 13 330 12.8
2010-05-25 07:55:30 51°15.995 2°53.29 333.4 13 330 12.8
2010-05-25 07:55:35 51°16.011 2°53.276 333.5 13 330 12.8
2010-05-25 07:55:40 51°16.026 2°53.262 333.9 13 330 12.9
2010-05-25 07:55:44 51°16.039 2°53.25 333.7 13 330 13
2010-05-25 07:55:50 51°16.057 2°53.233 333.4 13 330 13
2010-05-25 07:55:55 51°16.073 2°53.219 333.9 12.9 331 13
2010-05-25 07:56:00 51°16.088 2°53.204 332.8 13 328 13
2010-05-25 07:56:04 51°16.101 2°53.192 331.8 13 328 13.1
2010-05-25 07:56:10 51°16.119 2°53.173 331.1 13 328 13.1
2010-05-25 07:56:15 51°16.134 2°53.158 330.9 13 327 13
2010-05-25 07:56:20 51°16.149 2°53.142 330 13 326 13
2010-05-25 07:56:24 51°16.161 2°53.13 329.8 13.1 328 13
2010-05-25 07:56:30 51°16.179 2°53.11 330 13.1 326 13.1
2010-05-25 07:56:35 51°16.194 2°53.095 329.6 13 327 13
2010-05-25 07:56:40 51°16.209 2°53.079 329.2 13 326 13.2
2010-05-25 07:56:45 51°16.224 2°53.063 329 13 326 13.1
2010-05-25 07:56:50 51°16.239 2°53.046 328.9 13.1 326 13
2010-05-25 07:56:55 51°16.254 2°53.03 328.9 13 326 13.2
2010-05-25 07:57:00 51°16.27 2°53.015 329.1 13.1 327 13.1
2010-05-25 07:57:04 51°16.282 2°53.002 329.2 13.1 326 13.1
2010-05-25 07:57:10 51°16.3 2°52.983 329.4 13 327 13.1
2010-05-25 07:57:15 51°16.314 2°52.967 329.2 13 325 13.2
2010-05-25 07:57:20 51°16.329 2°52.95 328.4 13 324 13
2010-05-25 07:57:24 51°16.341 2°52.936 327.5 13 323 13
2010-05-25 07:57:30 51°16.358 2°52.916 326.7 13 324 13.1
2010-05-25 07:57:35 51°16.373 2°52.899 326.3 13 324 13.2
2010-05-25 07:57:40 51°16.387 2°52.881 326.3 13 323 13.2
2010-05-25 07:57:44 51°16.399 2°52.867 326.2 13 323 13.1
2010-05-25 07:57:50 51°16.416 2°52.847 325.4 13 323 13
2010-05-25 07:57:55 51°16.43 2°52.829 324.8 13 323 13
2010-05-25 07:58:00 51°16.444 2°52.811 325.6 13 322 12.9
2010-05-25 07:58:04 51°16.456 2°52.797 325.2 13 322 12.9
2010-05-25 07:58:10 51°16.473 2°52.776 325.1 13 321 12.9
2010-05-25 07:58:15 51°16.487 2°52.758 325 13 323 12.9
2010-05-25 07:58:20 51°16.502 2°52.741 325.5 13 322 12.9
2010-05-25 07:58:25 51°16.516 2°52.724 326 13 323 12.7
2010-05-25 07:58:30 51°16.53 2°52.706 325.5 13 322 12.5
2010-05-25 07:58:35 51°16.544 2°52.688 324.5 13.1 321 12.7
2010-05-25 07:58:40 51°16.559 2°52.67 325 13 322 12.5
2010-05-25 07:58:45 51°16.572 2°52.652 324.6 13 321 12.5
2010-05-25 07:58:50 51°16.587 2°52.634 324.4 13 321 12.5
2010-05-25 07:58:55 51°16.6 2°52.615 324 13 319 12.4
2010-05-25 07:59:00 51°16.614 2°52.596 323.6 13 320 12.4
2010-05-25 07:59:04 51°16.625 2°52.581 323.3 13 319 12.5
2010-05-25 07:59:10 51°16.641 2°52.559 323.6 13 320 12.5
2010-05-25 07:59:15 51°16.655 2°52.541 323.6 13 319 12.4
2010-05-25 07:59:20 51°16.669 2°52.522 323.5 13 320 12.2
2010-05-25 07:59:24 51°16.68 2°52.507 323.8 13 319 12
2010-05-25 07:59:29 51°16.693 2°52.488 323.4 12.9 321 12
2010-05-25 07:59:35 51°16.71 2°52.466 324.1 12.9 320 11.9
2010-05-25 07:59:40 51°16.724 2°52.449 324.1 12.9 321 11.9
2010-05-25 07:59:44 51°16.735 2°52.434 324.8 12.9 320 11.8
2010-05-25 07:59:49 51°16.749 2°52.416 324.4 12.9 321 12
2010-05-25 07:59:55 51°16.765 2°52.394 324.4 13 319 12
2010-05-25 08:00:00 51°16.779 2°52.376 323.9 12.9 320 12.1
2010-05-25 08:00:05 51°16.793 2°52.357 324 12.9 320 12
2010-05-25 08:00:10 51°16.806 2°52.339 323.4 12.9 320 12.1
2010-05-25 08:00:15 51°16.82 2°52.321 324 12.9 321 12.2
2010-05-25 08:00:20 51°16.834 2°52.303 324.2 12.9 322 12.3
2010-05-25 08:00:25 51°16.848 2°52.285 324.6 12.9 321 12.3
2010-05-25 08:00:30 51°16.862 2°52.266 324.4 12.9 320 12.5
2010-05-25 08:00:35 51°16.876 2°52.248 323.9 12.9 321 12.4
2010-05-25 08:00:40 51°16.89 2°52.23 323.8 12.9 320 12.5
2010-05-25 08:00:45 51°16.904 2°52.213 323.8 12.9 323 12.3
2010-05-25 08:00:50 51°16.919 2°52.197 326.5 12.9 326 12.3
2010-05-25 08:00:55 51°16.934 2°52.182 329.7 12.8 330 12.3
2010-05-25 08:01:00 51°16.95 2°52.17 333.4 12.7 333 12.2
2010-05-25 08:01:05 51°16.966 2°52.159 338.1 12.7 337 12.3
2010-05-25 08:01:10 51°16.983 2°52.149 341.2 12.6 339 12.2
2010-05-25 08:01:15 51°16.999 2°52.139 343.2 12.6 339 12.2
2010-05-25 08:01:20 51°17.016 2°52.129 343 12.7 338 12.3
2010-05-25 08:01:24 51°17.028 2°52.12 342.1 12.7 338 12.3
2010-05-25 08:01:30 51°17.048 2°52.108 341.9 12.7 338 12.4
2010-05-25 08:01:35 51°17.065 2°52.097 342 12.8 339 12.3
2010-05-25 08:01:40 51°17.081 2°52.087 342.2 12.8 339 12.5
2010-05-25 08:01:44 51°17.094 2°52.08 343.4 12.7 340 12.5
2010-05-25 08:01:50 51°17.115 2°52.07 344.4 12.6 344 12.6
2010-05-25 08:01:55 51°17.131 2°52.062 346.4 12.7 344 12.6
2010-05-25 08:02:00 51°17.148 2°52.055 347.4 12.7 346 12.6
2010-05-25 08:02:04 51°17.162 2°52.05 348.5 12.7 346 12.5
2010-05-25 08:02:10 51°17.183 2°52.041 349.2 12.7 347 12.5
2010-05-25 08:02:15 51°17.2 2°52.035 350.2 12.7 346 12.4
2010-05-25 08:02:20 51°17.217 2°52.029 350.3 12.7 347 12.5
2010-05-25 08:02:24 51°17.23 2°52.024 350.5 12.6 348 12.4
2010-05-25 08:02:30 51°17.251 2°52.016 350.8 12.6 347 12.6
2010-05-25 08:02:35 51°17.268 2°52.011 350.7 12.7 347 12.4
2010-05-25 08:02:40 51°17.285 2°52.004 350 12.7 346 12.1
2010-05-25 08:02:44 51°17.299 2°51.999 349.9 12.6 347 11.8
2010-05-25 08:02:50 51°17.319 2°51.99 349.5 12.7 345 11.7
2010-05-25 08:02:55 51°17.336 2°51.984 349.1 12.7 347 12.2
2010-05-25 08:03:00 51°17.353 2°51.977 349.3 12.7 345 12.1
2010-05-25 08:03:05 51°17.37 2°51.969 348.6 12.7 345 12
2010-05-25 08:03:10 51°17.387 2°51.96 347.2 12.7 342 11.9
2010-05-25 08:03:15 51°17.404 2°51.951 346 12.7 341 11.8
2010-05-25 08:03:20 51°17.42 2°51.942 344.1 12.6 340 11.7
2010-05-25 08:03:25 51°17.437 2°51.933 343.9 12.8 340 11.7
2010-05-25 08:03:30 51°17.453 2°51.922 342.6 12.8 338 11.8
2010-05-25 08:03:35 51°17.47 2°51.912 341.9 12.8 339 11.7
2010-05-25 08:03:40 51°17.486 2°51.9 341.2 12.8 337 11.8
2010-05-25 08:03:44 51°17.499 2°51.893 340.8 12.8 338 11.7
2010-05-25 08:03:50 51°17.519 2°51.879 340.4 12.8 337 11.6
2010-05-25 08:03:55 51°17.535 2°51.868 340 12.8 338 11.6
2010-05-25 08:04:00 51°17.552 2°51.857 340.1 12.8 337 11.7
2010-05-25 08:04:04 51°17.565 2°51.849 340.2 12.8 339 11.8
2010-05-25 08:04:10 51°17.584 2°51.835 340.5 12.8 336 11.7
2010-05-25 08:04:15 51°17.601 2°51.825 340.3 12.8 338 11.5
2010-05-25 08:04:20 51°17.617 2°51.814 340.4 12.8 337 11.6
2010-05-25 08:04:24 51°17.63 2°51.805 340.4 12.8 339 11.5
2010-05-25 08:04:30 51°17.65 2°51.793 341.3 12.8 338 11.5
2010-05-25 08:04:35 51°17.667 2°51.783 341.9 12.7 340 11.5
2010-05-25 08:04:40 51°17.683 2°51.773 342.6 12.8 339 11.4
2010-05-25 08:04:44 51°17.696 2°51.765 343 12.7 340 11.2
2010-05-25 08:04:50 51°17.716 2°51.755 344 12.7 342 11.3
2010-05-25 08:04:55 51°17.733 2°51.746 344.8 12.7 342 11.4
2010-05-25 08:05:00 51°17.75 2°51.738 345.4 12.7 344 11.3
2010-05-25 08:05:04 51°17.763 2°51.731 345.8 12.7 342 11.4
2010-05-25 08:05:10 51°17.784 2°51.722 345.6 12.7 345 11.2
2010-05-25 08:05:15 51°17.801 2°51.714 346.7 12.7 344 11.5
2010-05-25 08:05:20 51°17.818 2°51.707 347 12.7 345 11.5
2010-05-25 08:05:24 51°17.832 2°51.702 347.5 12.8 346 11.5
2010-05-25 08:05:30 51°17.852 2°51.694 348.1 12.8 346 11.5
2010-05-25 08:05:35 51°17.87 2°51.687 348.5 12.8 346 11.6
2010-05-25 08:05:40 51°17.887 2°51.68 348.4 12.8 347 11.5
2010-05-25 08:05:45 51°17.904 2°51.674 348.8 12.8 346 11.7
2010-05-25 08:05:50 51°17.921 2°51.668 349.4 12.8 348 11.7
2010-05-25 08:05:55 51°17.939 2°51.662 350.1 12.8 349 11.8
2010-05-25 08:06:00 51°17.956 2°51.657 350.7 12.8 348 11.8
2010-05-25 08:06:04 51°17.97 2°51.653 351.9 12.8 352 11.8
2010-05-25 08:06:10 51°17.991 2°51.647 352.3 12.8 349 11.9
2010-05-25 08:06:15 51°18.009 2°51.643 352.8 12.8 352 12.1
2010-05-25 08:06:20 51°18.026 2°51.639 353.4 12.8 351 11.9
2010-05-25 08:06:24 51°18.04 2°51.636 353.7 12.8 352 12.2
2010-05-25 08:06:30 51°18.061 2°51.631 353.5 12.8 351 12.2
2010-05-25 08:06:35 51°18.079 2°51.626 353.4 12.8 351 12.2
2010-05-25 08:06:40 51°18.096 2°51.621 353.3 12.8 351 12.5
2010-05-25 08:06:44 51°18.11 2°51.618 353.3 12.8 351 12.4
2010-05-25 08:06:50 51°18.131 2°51.614 354.3 12.8 354 12.6
2010-05-25 08:06:55 51°18.149 2°51.611 355.3 12.8 354 12.7
2010-05-25 08:07:00 51°18.167 2°51.608 355.7 12.8 354 12.6
2010-05-25 08:07:05 51°18.184 2°51.605 356.2 12.8 354 12.9
2010-05-25 08:07:10 51°18.202 2°51.603 356.3 12.8 355 12.8
2010-05-25 08:07:15 51°18.22 2°51.6 356.7 12.8 355 13
2010-05-25 08:07:20 51°18.237 2°51.597 356.9 12.8 354 13
2010-05-25 08:07:25 51°18.255 2°51.594 356.5 12.8 354 13.1
2010-05-25 08:07:30 51°18.272 2°51.59 356 12.7 354 13.2
2010-05-25 08:07:35 51°18.29 2°51.588 356.7 12.7 355 13.3
2010-05-25 08:07:40 51°18.308 2°51.585 356.6 12.8 354 13.3
2010-05-25 08:07:45 51°18.325 2°51.583 356.9 12.8 355 13.5
2010-05-25 08:07:50 51°18.343 2°51.58 357.1 12.8 355 13.5
2010-05-25 08:07:55 51°18.36 2°51.577 356.9 12.8 354 13.6
2010-05-25 08:08:00 51°18.378 2°51.575 356.7 12.8 355 13.7
2010-05-25 08:08:04 51°18.392 2°51.573 356.7 12.8 356 13.7
2010-05-25 08:08:10 51°18.413 2°51.57 357.1 12.8 355 13.9
2010-05-25 08:08:15 51°18.431 2°51.568 356.7 12.8 355 14
2010-05-25 08:08:20 51°18.449 2°51.565 356.7 12.8 354 14
2010-05-25 08:08:24 51°18.463 2°51.563 356.2 12.7 354 14.3
2010-05-25 08:08:30 51°18.483 2°51.559 356.3 12.6 354 14.2
2010-05-25 08:08:35 51°18.501 2°51.556 356.6 12.5 354 14.4
2010-05-25 08:08:40 51°18.518 2°51.553 356.5 12.4 354 14.4
2010-05-25 08:08:45 51°18.534 2°51.551 356.7 12.2 355 14.4
2010-05-25 08:08:50 51°18.551 2°51.549 357.2 12.1 355 14.5
2010-05-25 08:08:55 51°18.568 2°51.546 357.1 11.9 354 14.6
2010-05-25 08:09:00 51°18.584 2°51.544 356.8 11.9 355 14.8
2010-05-25 08:09:05 51°18.6 2°51.541 356.9 11.8 355 14.9
2010-05-25 08:09:10 51°18.617 2°51.539 357.1 11.8 355 15
2010-05-25 08:09:15 51°18.633 2°51.536 356.8 11.7 355 15
2010-05-25 08:09:20 51°18.649 2°51.534 356.7 11.8 354 15.1
2010-05-25 08:09:25 51°18.665 2°51.531 356.4 11.7 354 15.1
2010-05-25 08:09:30 51°18.681 2°51.529 356.4 11.7 355 15.2
2010-05-25 08:09:35 51°18.698 2°51.526 356.4 11.7 354 15.2
2010-05-25 08:09:40 51°18.714 2°51.524 356.5 11.8 355 15.3
2010-05-25 08:09:45 51°18.73 2°51.522 356.7 11.8 355 15.4
2010-05-25 08:09:50 51°18.746 2°51.519 356.9 11.7 354 15.4
2010-05-25 08:09:55 51°18.762 2°51.517 356.5 11.7 354 15.5
2010-05-25 08:10:00 51°18.779 2°51.514 356.4 11.8 354 15.7
2010-05-25 08:10:05 51°18.795 2°51.511 356.4 11.8 354 15.7
2010-05-25 08:10:10 51°18.811 2°51.508 356.5 11.7 354 15.6
2010-05-25 08:10:15 51°18.827 2°51.506 356.7 11.7 355 15.7
2010-05-25 08:10:20 51°18.843 2°51.504 356.9 11.8 355 15.9
2010-05-25 08:10:24 51°18.856 2°51.502 357.2 11.8 355 15.8
2010-05-25 08:10:30 51°18.876 2°51.499 356.8 11.7 354 15.9
2010-05-25 08:10:35 51°18.892 2°51.496 356.7 11.8 353 16.2
2010-05-25 08:10:40 51°18.908 2°51.493 356 11.7 353 16.2
2010-05-25 08:10:44 51°18.921 2°51.491 356.1 11.7 354 16.2
2010-05-25 08:10:50 51°18.94 2°51.488 356.6 11.7 354 16.2
2010-05-25 08:10:55 51°18.956 2°51.485 356.7 11.7 354 16
2010-05-25 08:11:00 51°18.972 2°51.482 356.8 11.7 354 16.1
2010-05-25 08:11:04 51°18.985 2°51.48 356.7 11.7 354 16.3
2010-05-25 08:11:10 51°19.005 2°51.477 356.4 11.7 354 16.5
2010-05-25 08:11:15 51°19.021 2°51.475 356.4 11.7 355 16.6
2010-05-25 08:11:20 51°19.037 2°51.473 356.9 11.7 355 16.5
2010-05-25 08:11:24 51°19.05 2°51.471 356.9 11.7 356 16.6
2010-05-25 08:11:30 51°19.07 2°51.469 357.2 11.7 355 16.6
2010-05-25 08:11:35 51°19.086 2°51.467 356.9 11.8 355 16.6
2010-05-25 08:11:40 51°19.102 2°51.464 356.5 11.8 355 16.7
2010-05-25 08:11:44 51°19.115 2°51.462 356.4 11.8 355 16.8
2010-05-25 08:11:50 51°19.135 2°51.459 356.5 11.8 355 16.8
2010-05-25 08:11:55 51°19.151 2°51.457 356.5 11.8 355 16.9
2010-05-25 08:12:00 51°19.168 2°51.455 356.3 11.8 356 16.9
2010-05-25 08:12:05 51°19.184 2°51.453 356.7 11.8 356 16.8
2010-05-25 08:12:10 51°19.2 2°51.451 356.5 11.7 355 16.9
2010-05-25 08:12:15 51°19.217 2°51.449 356.2 11.8 356 16.8
2010-05-25 08:12:20 51°19.233 2°51.448 356.6 11.8 356 16.7
2010-05-25 08:12:24 51°19.246 2°51.446 356.7 11.8 356 16.8
2010-05-25 08:12:30 51°19.266 2°51.444 356.5 11.8 356 16.8
2010-05-25 08:12:35 51°19.282 2°51.442 356.4 11.9 355 16.9
2010-05-25 08:12:40 51°19.299 2°51.44 356.1 11.9 356 16.8
2010-05-25 08:12:44 51°19.312 2°51.438 356.4 11.8 356 16.9
2010-05-25 08:12:50 51°19.331 2°51.436 356.5 11.9 356 16.8
2010-05-25 08:12:55 51°19.348 2°51.435 356.5 11.9 356 16.8
2010-05-25 08:13:00 51°19.364 2°51.433 356.9 12 357 16.8
2010-05-25 08:13:04 51°19.377 2°51.431 356.6 12 355 16.8
2010-05-25 08:13:10 51°19.397 2°51.429 356.2 11.9 355 16.9
2010-05-25 08:13:15 51°19.414 2°51.426 356.2 11.9 355 16.7
2010-05-25 08:13:20 51°19.43 2°51.424 356.2 12 355 16.8
2010-05-25 08:13:24 51°19.444 2°51.423 356.1 12 356 16.8
2010-05-25 08:13:30 51°19.464 2°51.42 356.2 12 355 16.6
2010-05-25 08:13:35 51°19.48 2°51.418 356.5 11.9 356 16.6
2010-05-25 08:13:40 51°19.497 2°51.416 356.2 12 355 16.7
2010-05-25 08:13:45 51°19.513 2°51.414 356.5 12 356 16.6
2010-05-25 08:13:50 51°19.53 2°51.412 356.5 11.9 355 16.7
2010-05-25 08:13:55 51°19.546 2°51.41 356.3 11.9 356 16.6
2010-05-25 08:14:00 51°19.563 2°51.408 356.5 11.9 355 16.6
2010-05-25 08:14:05 51°19.579 2°51.406 356.5 11.9 356 16.6
2010-05-25 08:14:10 51°19.596 2°51.404 356.5 11.9 355 16.6
2010-05-25 08:14:15 51°19.612 2°51.402 356.4 11.9 356 16.7
2010-05-25 08:14:20 51°19.629 2°51.4 356.6 11.9 356 16.6
2010-05-25 08:14:25 51°19.645 2°51.398 356.6 11.9 356 16.4
2010-05-25 08:14:30 51°19.662 2°51.396 356.5 11.9 356 16.5
2010-05-25 08:14:35 51°19.678 2°51.394 356.5 11.9 355 16.5
2010-05-25 08:14:40 51°19.695 2°51.392 356.4 11.9 355 16.3
2010-05-25 08:14:45 51°19.711 2°51.39 356.1 11.8 355 16.3
2010-05-25 08:14:50 51°19.727 2°51.387 356.2 11.9 355 16.2
2010-05-25 08:14:55 51°19.744 2°51.385 356.2 11.8 355 16.2
2010-05-25 08:15:00 51°19.76 2°51.383 356.4 11.8 355 16.2
2010-05-25 08:15:04 51°19.773 2°51.381 356.1 11.8 355 16.2
2010-05-25 08:15:10 51°19.793 2°51.379 356.3 11.8 356 15.9
2010-05-25 08:15:15 51°19.809 2°51.377 356.4 11.8 356 16
2010-05-25 08:15:20 51°19.825 2°51.375 356.6 11.8 356 15.8
2010-05-25 08:15:25 51°19.842 2°51.373 356.5 11.8 355 15.9
2010-05-25 08:15:30 51°19.858 2°51.371 356.4 11.8 355 15.8
2010-05-25 08:15:35 51°19.874 2°51.368 355.9 11.8 354 15.7
2010-05-25 08:15:40 51°19.89 2°51.366 355.4 11.8 355 15.7
2010-05-25 08:15:45 51°19.907 2°51.363 355.7 11.8 354 15.5
2010-05-25 08:15:50 51°19.923 2°51.361 355.6 11.8 355 15.4
2010-05-25 08:15:55 51°19.939 2°51.359 356 11.8 355 15.2
2010-05-25 08:16:00 51°19.956 2°51.356 356.3 11.8 355 15.2
2010-05-25 08:16:05 51°19.972 2°51.354 356.2 11.8 355 15
2010-05-25 08:16:10 51°19.988 2°51.352 356.1 11.7 356 14.8
2010-05-25 08:16:15 51°20.004 2°51.35 356.5 11.7 356 14.7
2010-05-25 08:16:20 51°20.02 2°51.348 356.2 11.7 356 14.6
2010-05-25 08:16:25 51°20.037 2°51.347 356.6 11.7 357 14.1
2010-05-25 08:16:30 51°20.053 2°51.345 356.6 11.7 355 14.1
2010-05-25 08:16:35 51°20.069 2°51.343 356.4 11.7 356 14
2010-05-25 08:16:40 51°20.085 2°51.341 356.2 11.7 356 13.6
2010-05-25 08:16:45 51°20.101 2°51.339 356.1 11.7 355 13.5
2010-05-25 08:16:50 51°20.117 2°51.336 355.9 11.7 355 13.7
2010-05-25 08:16:55 51°20.134 2°51.335 356 11.7 356 13.9
2010-05-25 08:17:00 51°20.15 2°51.333 356.1 11.7 356 13.9
2010-05-25 08:17:04 51°20.163 2°51.332 356.4 11.7 356 13.9
2010-05-25 08:17:10 51°20.182 2°51.33 356.4 11.7 356 14.2
2010-05-25 08:17:15 51°20.199 2°51.328 356.5 11.7 356 14.2
2010-05-25 08:17:20 51°20.215 2°51.326 356.4 11.7 356 14.6
2010-05-25 08:17:24 51°20.228 2°51.324 356.3 11.7 355 14.7
2010-05-25 08:17:30 51°20.247 2°51.322 356.2 11.7 355 14.8
2010-05-25 08:17:35 51°20.263 2°51.32 356.2 11.7 356 14.8
2010-05-25 08:17:40 51°20.28 2°51.318 356.4 11.7 355 15
2010-05-25 08:17:44 51°20.293 2°51.316 356.3 11.7 356 15.2
2010-05-25 08:17:50 51°20.312 2°51.314 356.5 11.7 356 15.3
2010-05-25 08:17:55 51°20.328 2°51.312 356.5 11.7 356 15.6
2010-05-25 08:18:00 51°20.344 2°51.31 356.5 11.7 355 15.8
2010-05-25 08:18:04 51°20.357 2°51.308 356.3 11.7 355 15.8
2010-05-25 08:18:10 51°20.377 2°51.305 356.2 11.7 355 16.1
2010-05-25 08:18:15 51°20.393 2°51.303 356.2 11.7 355 16.5
2010-05-25 08:18:20 51°20.409 2°51.301 356 11.8 355 16.4
2010-05-25 08:18:24 51°20.422 2°51.299 355.7 11.7 355 16.5
2010-05-25 08:18:30 51°20.442 2°51.296 356 11.7 355 16.8
2010-05-25 08:18:35 51°20.458 2°51.294 356.1 11.7 354 16.9
2010-05-25 08:18:40 51°20.475 2°51.291 355.9 11.7 355 17.1
2010-05-25 08:18:45 51°20.491 2°51.289 355.9 11.7 355 17.2
2010-05-25 08:18:50 51°20.507 2°51.287 356.2 11.7 355 17.2
2010-05-25 08:18:55 51°20.523 2°51.284 356.3 11.7 355 17.4
2010-05-25 08:19:00 51°20.539 2°51.282 356.4 11.7 355 17.5
2010-05-25 08:19:05 51°20.555 2°51.28 356.3 11.7 355 17.6
2010-05-25 08:19:10 51°20.572 2°51.278 356.2 11.8 354 17.9
2010-05-25 08:19:15 51°20.588 2°51.276 356.3 11.7 356 17.9
2010-05-25 08:19:20 51°20.604 2°51.273 356.4 11.7 355 17.9
2010-05-25 08:19:24 51°20.617 2°51.272 356.3 11.7 356 18
2010-05-25 08:19:30 51°20.637 2°51.27 356.3 11.8 355 18.2
2010-05-25 08:19:35 51°20.653 2°51.268 356.4 11.8 356 18.5
2010-05-25 08:19:40 51°20.67 2°51.266 356.5 11.8 355 18.5
2010-05-25 08:19:44 51°20.683 2°51.264 356.4 11.9 356 18.6
2010-05-25 08:19:50 51°20.703 2°51.262 356.4 11.9 356 18.7
2010-05-25 08:19:55 51°20.719 2°51.261 356.3 11.9 356 18.9
2010-05-25 08:20:00 51°20.735 2°51.258 356.6 11.9 355 19
2010-05-25 08:20:04 51°20.748 2°51.256 356.3 11.9 356 19.2
2010-05-25 08:20:10 51°20.768 2°51.254 356.5 11.8 355 19.1
2010-05-25 08:20:15 51°20.785 2°51.252 356.3 11.9 356 19.3
2010-05-25 08:20:20 51°20.801 2°51.249 356.4 11.9 355 19.5
2010-05-25 08:20:24 51°20.814 2°51.248 356.1 11.9 355 19.5
2010-05-25 08:20:30 51°20.834 2°51.245 356 11.9 355 19.7
2010-05-25 08:20:35 51°20.85 2°51.242 356 11.9 355 19.6
2010-05-25 08:20:40 51°20.866 2°51.24 356.1 11.8 355 19.9
2010-05-25 08:20:45 51°20.883 2°51.238 356.1 11.8 356 20.1
2010-05-25 08:20:50 51°20.9 2°51.236 356.5 11.9 356 20.3
2010-05-25 08:20:55 51°20.916 2°51.235 356.5 11.9 356 20.5
2010-05-25 08:21:00 51°20.932 2°51.233 356.7 11.9 355 20.7
2010-05-25 08:21:05 51°20.949 2°51.231 356.4 11.9 356 20.8
2010-05-25 08:21:10 51°20.965 2°51.228 356.3 11.9 355 21.4
2010-05-25 08:21:15 51°20.982 2°51.226 356.3 11.9 354 21.6
2010-05-25 08:21:20 51°20.998 2°51.223 355.8 11.8 354 21.6
2010-05-25 08:21:24 51°21.011 2°51.221 356.1 11.8 355 21.7
2010-05-25 08:21:30 51°21.031 2°51.219 356.1 11.9 355 22.1
2010-05-25 08:21:35 51°21.047 2°51.216 356.2 11.9 355 22.3
2010-05-25 08:21:40 51°21.063 2°51.214 356.2 11.9 355 22.3
2010-05-25 08:21:44 51°21.077 2°51.212 356.5 11.9 356 22.6
2010-05-25 08:21:50 51°21.096 2°51.21 356.5 11.9 355 22.7
2010-05-25 08:21:55 51°21.113 2°51.208 356.6 12 356 22.8
2010-05-25 08:22:00 51°21.129 2°51.206 356.7 11.9 356 23.2
2010-05-25 08:22:04 51°21.143 2°51.204 356.5 12 355 23.4
2010-05-25 08:22:09 51°21.159 2°51.202 356.2 12 355 23.6
2010-05-25 08:22:15 51°21.179 2°51.199 356.4 12 355 23.8
2010-05-25 08:22:20 51°21.195 2°51.197 356.3 11.9 355 23.9
2010-05-25 08:22:25 51°21.212 2°51.195 356.2 12 355 24.1
2010-05-25 08:22:30 51°21.228 2°51.192 356.2 11.9 355 24.2
2010-05-25 08:22:35 51°21.245 2°51.19 356.3 11.9 354 24.6
2010-05-25 08:22:40 51°21.261 2°51.187 356.3 11.9 354 24.6
2010-05-25 08:22:45 51°21.278 2°51.185 356.1 12 354 24.6
2010-05-25 08:22:50 51°21.294 2°51.182 355.9 12 355 24.6
2010-05-25 08:22:55 51°21.311 2°51.179 356.4 12 354 25.1
2010-05-25 08:23:00 51°21.327 2°51.177 356.3 12 355 25.1
2010-05-25 08:23:05 51°21.344 2°51.174 356 12 354 25.1
2010-05-25 08:23:10 51°21.36 2°51.171 356.1 11.9 355 25
2010-05-25 08:23:15 51°21.377 2°51.169 356.2 11.9 354 25.4
2010-05-25 08:23:20 51°21.393 2°51.167 356.1 11.9 355 25.4
2010-05-25 08:23:24 51°21.406 2°51.165 356.4 12 354 25.6
2010-05-25 08:23:30 51°21.426 2°51.162 356.3 12 355 25.5
2010-05-25 08:23:35 51°21.443 2°51.159 356.3 12 355 25.4
2010-05-25 08:23:40 51°21.459 2°51.157 356.5 12 355 25.1
2010-05-25 08:23:44 51°21.473 2°51.154 356.5 12 354 25.6
2010-05-25 08:23:50 51°21.492 2°51.152 356.3 11.9 355 25.5
2010-05-25 08:23:55 51°21.509 2°51.149 356.4 11.9 355 25.4
2010-05-25 08:24:00 51°21.525 2°51.147 356.5 11.9 355 25.2
2010-05-25 08:24:04 51°21.539 2°51.145 356.8 12 355 25.7
2010-05-25 08:24:10 51°21.558 2°51.143 356.6 11.9 355 25.7
2010-05-25 08:24:15 51°21.575 2°51.14 356.5 11.9 355 25.7
2010-05-25 08:24:20 51°21.591 2°51.138 356.5 11.9 355 25.7
2010-05-25 08:24:24 51°21.605 2°51.136 356.4 11.9 356 25.7
2010-05-25 08:24:30 51°21.624 2°51.134 356.7 11.9 356 25.7
2010-05-25 08:24:35 51°21.641 2°51.132 357.2 11.9 357 25.8
2010-05-25 08:24:40 51°21.657 2°51.131 357.3 11.9 356 25.8
2010-05-25 08:24:44 51°21.671 2°51.129 356.8 12 355 25.9
2010-05-25 08:24:50 51°21.69 2°51.127 356.5 11.9 357 25.9
2010-05-25 08:24:55 51°21.707 2°51.125 356.9 11.9 356 25.8
2010-05-25 08:25:00 51°21.723 2°51.123 356.9 11.9 357 25.5
2010-05-25 08:25:04 51°21.737 2°51.122 357.4 11.9 356 25.9
2010-05-25 08:25:10 51°21.756 2°51.12 356.6 11.9 356 25.9
2010-05-25 08:25:15 51°21.773 2°51.118 356.6 12 356 25.8
2010-05-25 08:25:20 51°21.79 2°51.115 356.2 12 354 25.9
2010-05-25 08:25:25 51°21.806 2°51.113 356.2 12 355 25.7
2010-05-25 08:25:30 51°21.823 2°51.11 355.7 12 354 25.6
2010-05-25 08:25:35 51°21.839 2°51.108 355.7 12 354 25.8
2010-05-25 08:25:40 51°21.856 2°51.105 356 11.9 355 25.6
2010-05-25 08:25:44 51°21.869 2°51.103 355.5 12 354 25.6
2010-05-25 08:25:50 51°21.889 2°51.1 356 12 354 25.6
2010-05-25 08:25:55 51°21.905 2°51.097 356 11.9 354 25.3
2010-05-25 08:26:00 51°21.922 2°51.094 355.8 12 354 25.3
2010-05-25 08:26:04 51°21.935 2°51.092 355.7 11.9 354 24.9
2010-05-25 08:26:10 51°21.955 2°51.089 355.9 11.9 354 25
2010-05-25 08:26:15 51°21.971 2°51.086 355.8 11.9 355 25
2010-05-25 08:26:20 51°21.988 2°51.084 356.5 12 355 24.5
2010-05-25 08:26:24 51°22.001 2°51.083 356.6 11.9 355 24.6
2010-05-25 08:26:30 51°22.021 2°51.079 356.4 11.9 354 24.6
2010-05-25 08:26:35 51°22.038 2°51.077 356.3 11.9 355 24.5
2010-05-25 08:26:40 51°22.054 2°51.075 356.4 12 355 24.4
2010-05-25 08:26:44 51°22.067 2°51.072 356.3 12 355 24.5
2010-05-25 08:26:50 51°22.087 2°51.069 356.5 12 354 24.4
2010-05-25 08:26:55 51°22.104 2°51.067 356.4 11.9 355 24.3
2010-05-25 08:27:00 51°22.12 2°51.064 356.5 11.9 354 24.4
2010-05-25 08:27:04 51°22.133 2°51.062 356.4 11.9 354 24.5
2010-05-25 08:27:10 51°22.153 2°51.059 355.9 12 354 24.4
2010-05-25 08:27:15 51°22.17 2°51.056 356.1 12 354 24.3
2010-05-25 08:27:20 51°22.186 2°51.053 356.1 12 354 24.4
2010-05-25 08:27:24 51°22.2 2°51.051 356.4 12 354 24.4
2010-05-25 08:27:30 51°22.22 2°51.048 356.3 12 354 24.4
2010-05-25 08:27:35 51°22.236 2°51.046 356.5 12 355 24.4
2010-05-25 08:27:40 51°22.253 2°51.043 356.7 12 354 24.6
2010-05-25 08:27:45 51°22.27 2°51.041 356.5 12 355 24.4
2010-05-25 08:27:50 51°22.286 2°51.038 356.3 12 354 24.6
2010-05-25 08:27:55 51°22.303 2°51.036 356.2 12 355 24.5
2010-05-25 08:28:00 51°22.32 2°51.033 356.7 12 355 24.4
2010-05-25 08:28:04 51°22.333 2°51.031 356.5 12 354 24.7
2010-05-25 08:28:10 51°22.353 2°51.028 356.5 12 355 24.7
2010-05-25 08:28:15 51°22.369 2°51.025 356.6 12 354 24.6
2010-05-25 08:28:20 51°22.386 2°51.023 356.4 12 354 24.8
2010-05-25 08:28:24 51°22.399 2°51.02 356.5 12 354 24.8
2010-05-25 08:28:30 51°22.419 2°51.018 356.5 12.1 355 24.6
2010-05-25 08:28:35 51°22.436 2°51.015 356.1 12.1 354 24.5
2010-05-25 08:28:40 51°22.453 2°51.013 356.5 12.1 356 24.6
2010-05-25 08:28:44 51°22.466 2°51.011 356.7 12 354 24.6
2010-05-25 08:28:49 51°22.483 2°51.008 356.5 12.1 355 24.6
2010-05-25 08:28:55 51°22.503 2°51.005 356.5 12.1 354 24.4
2010-05-25 08:29:00 51°22.52 2°51.002 356.5 12.1 355 24.1
2010-05-25 08:29:04 51°22.533 2°51 356.4 12.1 354 24.5
2010-05-25 08:29:09 51°22.55 2°50.998 356.5 12.2 355 24.3
2010-05-25 08:29:15 51°22.57 2°50.995 356.6 12.2 355 24.3
2010-05-25 08:29:20 51°22.587 2°50.992 356.4 12.2 354 24.2
2010-05-25 08:29:25 51°22.604 2°50.99 356.6 12.2 356 24.1
2010-05-25 08:29:30 51°22.62 2°50.988 356.4 12.2 355 24.2
2010-05-25 08:29:35 51°22.637 2°50.986 356.5 12.2 356 24.3
2010-05-25 08:29:40 51°22.654 2°50.983 356.2 12.2 355 24.3
2010-05-25 08:29:45 51°22.671 2°50.982 356.3 12.2 356 24.6
2010-05-25 08:29:50 51°22.688 2°50.981 356.7 12.2 358 24.4
2010-05-25 08:29:55 51°22.705 2°50.979 357.2 12.2 358 23.8
2010-05-25 08:30:00 51°22.722 2°50.978 357.2 12.2 358 24.2
2010-05-25 08:30:05 51°22.739 2°50.977 356.7 12.2 357 24.2
2010-05-25 08:30:10 51°22.755 2°50.975 356.6 12.2 356 23.7
2010-05-25 08:30:15 51°22.772 2°50.974 355.9 12.2 357 23.5
2010-05-25 08:30:20 51°22.789 2°50.972 356.2 12.2 356 23.5
2010-05-25 08:30:24 51°22.803 2°50.971 356.1 12.2 357 23.4
2010-05-25 08:30:30 51°22.823 2°50.968 356 12.3 356 23.4
2010-05-25 08:30:35 51°22.84 2°50.966 355.7 12.2 356 22.9
2010-05-25 08:30:40 51°22.857 2°50.964 355.5 12.2 355 21.7
2010-05-25 08:30:44 51°22.87 2°50.962 355.7 12.2 355 20.8
2010-05-25 08:30:50 51°22.891 2°50.959 355.4 12.2 355 23.5
2010-05-25 08:30:55 51°22.907 2°50.957 355.3 12.1 355 23.6
2010-05-25 08:31:00 51°22.924 2°50.955 355.3 12.1 355 22.8
2010-05-25 08:31:04 51°22.938 2°50.953 355.9 12.1 355 22.1
2010-05-25 08:31:10 51°22.957 2°50.95 355.9 12 355 21.4
2010-05-25 08:31:15 51°22.974 2°50.949 355.8 11.9 356 20.1
2010-05-25 08:31:20 51°22.991 2°50.947 356.8 11.9 357 18.5
2010-05-25 08:31:24 51°23.004 2°50.946 356.5 11.9 356 16.2
2010-05-25 08:31:30 51°23.023 2°50.944 356.5 11.9 357 17.5
2010-05-25 08:31:35 51°23.04 2°50.942 356.3 11.9 356 18.2
2010-05-25 08:31:40 51°23.057 2°50.94 356.3 11.9 356 17.9
2010-05-25 08:31:44 51°23.07 2°50.939 356.3 11.9 357 16.1
2010-05-25 08:31:50 51°23.09 2°50.937 356.3 11.9 356 15.8
2010-05-25 08:31:55 51°23.106 2°50.935 356.6 11.9 356 17.2
2010-05-25 08:32:00 51°23.122 2°50.933 356.1 11.9 356 17.4
2010-05-25 08:32:05 51°23.139 2°50.932 356.2 11.9 356 17.1
2010-05-25 08:32:10 51°23.155 2°50.93 356.4 11.8 356 14.8
2010-05-25 08:32:15 51°23.171 2°50.928 356.3 11.7 356 16.2
2010-05-25 08:32:20 51°23.188 2°50.926 356.3 11.8 355 17
2010-05-25 08:32:25 51°23.204 2°50.924 355.8 11.8 356 17.1
2010-05-25 08:32:30 51°23.22 2°50.922 356.1 11.7 355 17
2010-05-25 08:32:35 51°23.237 2°50.92 356 11.7 356 16.6
2010-05-25 08:32:40 51°23.253 2°50.918 356.2 11.7 356 15.2
2010-05-25 08:32:44 51°23.266 2°50.917 356.4 11.7 356 16.2
2010-05-25 08:32:50 51°23.285 2°50.914 356.1 11.8 355 16.7
2010-05-25 08:32:55 51°23.302 2°50.913 356.2 11.8 356 17.2
2010-05-25 08:33:00 51°23.318 2°50.911 356.2 11.8 356 17.5
2010-05-25 08:33:04 51°23.331 2°50.909 356.4 11.8 355 17.6
2010-05-25 08:33:10 51°23.35 2°50.907 356.2 11.8 356 17.6
2010-05-25 08:33:15 51°23.367 2°50.904 356.1 11.8 355 17.3
2010-05-25 08:33:20 51°23.383 2°50.903 355.9 11.7 356 17.3
2010-05-25 08:33:24 51°23.396 2°50.901 356.1 11.7 355 16.5
2010-05-25 08:33:30 51°23.415 2°50.898 356.1 11.7 356 16.5
2010-05-25 08:33:35 51°23.432 2°50.896 356.1 11.8 355 17.8
2010-05-25 08:33:40 51°23.448 2°50.894 356.1 11.8 355 18.1
2010-05-25 08:33:44 51°23.461 2°50.892 356.2 11.8 356 18.3
2010-05-25 08:33:50 51°23.48 2°50.89 356.4 11.7 355 18.5
2010-05-25 08:33:55 51°23.497 2°50.888 356.5 11.8 355 18.1
2010-05-25 08:34:00 51°23.513 2°50.886 356.1 11.8 355 17.9
2010-05-25 08:34:05 51°23.529 2°50.883 355.8 11.8 355 19
2010-05-25 08:34:10 51°23.546 2°50.882 356 11.8 356 19.4
2010-05-25 08:34:15 51°23.562 2°50.879 356.2 11.8 355 19.4
2010-05-25 08:34:20 51°23.578 2°50.877 356.2 11.8 355 18
2010-05-25 08:34:25 51°23.595 2°50.875 355.7 11.8 356 17.2
2010-05-25 08:34:30 51°23.611 2°50.873 356.5 11.8 356 18.6
2010-05-25 08:34:35 51°23.627 2°50.871 356.7 11.8 356 19.3
2010-05-25 08:34:40 51°23.644 2°50.869 356.7 11.8 356 19.6
2010-05-25 08:34:45 51°23.66 2°50.867 356.8 11.9 355 20.3
2010-05-25 08:34:50 51°23.676 2°50.865 356.6 11.8 355 19.8
2010-05-25 08:34:55 51°23.693 2°50.863 356.5 11.9 356 18.6
2010-05-25 08:35:00 51°23.709 2°50.861 356.7 11.8 355 18.9
2010-05-25 08:35:04 51°23.722 2°50.858 356.5 11.8 354 19.9
2010-05-25 08:35:10 51°23.742 2°50.856 356.5 11.7 356 21
2010-05-25 08:35:15 51°23.758 2°50.854 356.5 11.8 355 21.5
2010-05-25 08:35:20 51°23.774 2°50.852 356.5 11.8 356 21.6
2010-05-25 08:35:24 51°23.787 2°50.85 356.5 11.9 354 22.2
2010-05-25 08:35:30 51°23.807 2°50.847 356.2 11.9 356 21.5
2010-05-25 08:35:35 51°23.823 2°50.845 356.4 11.8 355 19.3
2010-05-25 08:35:40 51°23.84 2°50.843 356.5 11.8 355 20.9
2010-05-25 08:35:44 51°23.853 2°50.841 356.3 11.8 355 22
2010-05-25 08:35:49 51°23.869 2°50.838 356.2 11.9 355 22.5
2010-05-25 08:35:55 51°23.889 2°50.836 356.4 11.9 355 22.3
2010-05-25 08:36:00 51°23.906 2°50.834 356.5 11.9 356 22.3
2010-05-25 08:36:05 51°23.922 2°50.832 356.7 12 356 22.6
2010-05-25 08:36:10 51°23.939 2°50.83 356.7 11.9 355 22.7
2010-05-25 08:36:15 51°23.955 2°50.828 356.5 11.9 355 22.9
2010-05-25 08:36:20 51°23.972 2°50.825 356.1 11.9 355 22.9
2010-05-25 08:36:25 51°23.988 2°50.823 356.1 11.9 355 23.2
2010-05-25 08:36:30 51°24.005 2°50.821 356.3 11.9 355 23.4
2010-05-25 08:36:35 51°24.021 2°50.818 356.4 12 355 23.5
2010-05-25 08:36:40 51°24.038 2°50.816 356.2 11.9 355 23.6
2010-05-25 08:36:45 51°24.054 2°50.814 356.5 11.9 354 23.6
2010-05-25 08:36:50 51°24.071 2°50.811 356.6 11.9 356 23.7
2010-05-25 08:36:55 51°24.087 2°50.809 356.1 11.9 354 23.7
2010-05-25 08:37:00 51°24.103 2°50.806 356.1 11.9 355 23.9
2010-05-25 08:37:04 51°24.117 2°50.804 356.1 11.9 355 23.8
2010-05-25 08:37:10 51°24.137 2°50.802 356 11.9 355 23.9
2010-05-25 08:37:15 51°24.153 2°50.799 356.1 11.9 355 23.9
2010-05-25 08:37:20 51°24.17 2°50.797 356.4 12 355 23.9
2010-05-25 08:37:24 51°24.183 2°50.795 356.4 12 355 24
2010-05-25 08:37:30 51°24.203 2°50.793 356.3 12 356 23.9
2010-05-25 08:37:35 51°24.219 2°50.791 356.5 11.9 355 23.9
2010-05-25 08:37:40 51°24.236 2°50.789 356.6 11.9 355 24
2010-05-25 08:37:44 51°24.249 2°50.786 356.2 12 354 24
2010-05-25 08:37:50 51°24.269 2°50.783 356 11.9 355 24
2010-05-25 08:37:55 51°24.285 2°50.781 355.9 12 355 23.9
2010-05-25 08:38:00 51°24.302 2°50.779 355.8 11.9 355 24
2010-05-25 08:38:04 51°24.315 2°50.777 356.4 11.9 355 23.8
2010-05-25 08:38:10 51°24.335 2°50.775 356.3 11.9 356 23.7
2010-05-25 08:38:15 51°24.351 2°50.773 356.5 12 356 23.7
2010-05-25 08:38:20 51°24.368 2°50.771 356.7 11.9 355 23.7
2010-05-25 08:38:24 51°24.381 2°50.769 356.5 12 356 23.8
2010-05-25 08:38:30 51°24.401 2°50.767 356.4 12 356 23.8
2010-05-25 08:38:35 51°24.418 2°50.765 356.2 11.9 355 23.9
2010-05-25 08:38:40 51°24.434 2°50.763 356.1 11.9 355 24.1
2010-05-25 08:38:45 51°24.451 2°50.76 355.8 12 355 24.5
2010-05-25 08:38:50 51°24.467 2°50.758 355.9 12 355 24.6
2010-05-25 08:38:55 51°24.484 2°50.755 356.1 12 354 24.7
2010-05-25 08:39:00 51°24.5 2°50.753 355.8 12 355 24.6
2010-05-25 08:39:05 51°24.517 2°50.751 356.1 12 356 24.6
2010-05-25 08:39:10 51°24.533 2°50.748 356.6 12 355 24.6
2010-05-25 08:39:15 51°24.55 2°50.747 356.5 12 355 24.6
2010-05-25 08:39:20 51°24.567 2°50.745 356.5 12 355 24.6
2010-05-25 08:39:24 51°24.58 2°50.742 356.3 12 354 24.8
2010-05-25 08:39:30 51°24.6 2°50.74 356.1 12 355 24.8
2010-05-25 08:39:35 51°24.616 2°50.737 355.9 12 354 24.7
2010-05-25 08:39:40 51°24.633 2°50.735 355.9 12.1 355 24.7
2010-05-25 08:39:44 51°24.646 2°50.732 355.8 12.1 354 24.7
2010-05-25 08:39:50 51°24.666 2°50.729 355.8 12 355 24.7
2010-05-25 08:39:55 51°24.683 2°50.727 356.2 12 355 24.6
2010-05-25 08:40:00 51°24.7 2°50.725 356.4 12.1 356 24.7
2010-05-25 08:40:04 51°24.713 2°50.724 356.7 12 355 24.6
2010-05-25 08:40:10 51°24.733 2°50.721 356.6 12 355 24.5
2010-05-25 08:40:15 51°24.75 2°50.718 356.5 12.1 355 24.6
2010-05-25 08:40:20 51°24.766 2°50.716 356.2 12 355 24.6
2010-05-25 08:40:24 51°24.78 2°50.714 356.5 12.1 355 24.7
2010-05-25 08:40:30 51°24.8 2°50.711 356.2 12 355 24.7
2010-05-25 08:40:35 51°24.816 2°50.709 356.5 12.1 355 24.6
2010-05-25 08:40:40 51°24.833 2°50.706 356.6 12 354 24.8
2010-05-25 08:40:44 51°24.846 2°50.704 356.1 12 355 24.8
2010-05-25 08:40:50 51°24.866 2°50.701 356.5 12.1 355 24.8
2010-05-25 08:40:55 51°24.883 2°50.699 356.5 12.1 355 24.8
2010-05-25 08:41:00 51°24.899 2°50.697 356.5 12.1 355 24.8
2010-05-25 08:41:05 51°24.916 2°50.695 356.5 12.1 355 24.8
2010-05-25 08:41:10 51°24.933 2°50.693 356.6 12.1 356 24.9
2010-05-25 08:41:15 51°24.949 2°50.691 356.6 12 356 24.8
2010-05-25 08:41:20 51°24.966 2°50.689 356.7 12.1 357 24.9
2010-05-25 08:41:24 51°24.98 2°50.688 357.2 12.1 357 24.8
2010-05-25 08:41:30 51°25 2°50.687 357.2 12.1 358 25
2010-05-25 08:41:35 51°25.017 2°50.686 357.2 12.1 358 25.1
2010-05-25 08:41:40 51°25.034 2°50.684 357.2 12.2 357 24.9
2010-05-25 08:41:44 51°25.047 2°50.683 356.5 12.2 356 24.9
2010-05-25 08:41:50 51°25.067 2°50.681 356.3 12.2 357 24.8
2010-05-25 08:41:55 51°25.084 2°50.679 356.2 12.2 356 25
2010-05-25 08:42:00 51°25.101 2°50.677 355.7 12.2 355 24.9
2010-05-25 08:42:04 51°25.114 2°50.676 355.7 12.2 356 25
2010-05-25 08:42:10 51°25.135 2°50.673 355.7 12.2 355 24.9
2010-05-25 08:42:15 51°25.151 2°50.671 355.5 12.2 356 24.9
2010-05-25 08:42:20 51°25.168 2°50.669 355.5 12.1 356 24.9
2010-05-25 08:42:24 51°25.182 2°50.668 355.8 12.1 357 24.9
2010-05-25 08:42:29 51°25.199 2°50.667 356.5 12.2 357 25
2010-05-25 08:42:35 51°25.219 2°50.665 356.4 12.2 356 25.1
2010-05-25 08:42:40 51°25.236 2°50.663 356.2 12.2 357 25.2
2010-05-25 08:42:45 51°25.252 2°50.661 356.2 12.1 356 25.1
2010-05-25 08:42:50 51°25.269 2°50.66 356.5 12.1 356 25.4
2010-05-25 08:42:55 51°25.286 2°50.658 356.3 12.1 357 25.2
2010-05-25 08:43:00 51°25.303 2°50.656 356.3 12.1 356 25.2
2010-05-25 08:43:05 51°25.32 2°50.655 356.1 12.2 357 25.3
2010-05-25 08:43:10 51°25.336 2°50.653 356 12.2 357 25.3
2010-05-25 08:43:15 51°25.353 2°50.652 356.1 12.2 357 25.4
2010-05-25 08:43:20 51°25.37 2°50.651 356.2 12.2 357 25.3
2010-05-25 08:43:25 51°25.387 2°50.649 356.3 12.2 356 25.3
2010-05-25 08:43:30 51°25.404 2°50.647 356.1 12.2 356 25.4
2010-05-25 08:43:35 51°25.421 2°50.645 355.7 12.2 356 25.4
2010-05-25 08:43:40 51°25.438 2°50.644 356.1 12.2 357 25.2
2010-05-25 08:43:45 51°25.454 2°50.642 356.2 12.2 357 25.3
2010-05-25 08:43:50 51°25.471 2°50.641 356.5 12.2 358 25.3
2010-05-25 08:43:55 51°25.488 2°50.639 356.4 12.1 356 25.3
2010-05-25 08:44:00 51°25.505 2°50.638 356.2 12.1 357 25.2
2010-05-25 08:44:04 51°25.518 2°50.637 356 12.1 357 25.4
2010-05-25 08:44:10 51°25.539 2°50.635 356.2 12.1 357 25.2
2010-05-25 08:44:15 51°25.555 2°50.634 356.3 12.1 357 25.2
2010-05-25 08:44:20 51°25.572 2°50.633 356.1 12.1 357 25.3
2010-05-25 08:44:24 51°25.585 2°50.631 356 12.1 356 25.4
2010-05-25 08:44:30 51°25.606 2°50.63 356.2 12.2 357 25.5
2010-05-25 08:44:35 51°25.623 2°50.628 355.9 12.2 356 25.3
2010-05-25 08:44:40 51°25.64 2°50.627 356.1 12.2 358 25.4
2010-05-25 08:44:44 51°25.653 2°50.625 356.4 12.2 357 25.4
2010-05-25 08:44:50 51°25.673 2°50.623 356.2 12.1 357 25.2
2010-05-25 08:44:55 51°25.69 2°50.622 356 12.1 357 25.4
2010-05-25 08:45:00 51°25.707 2°50.621 356.1 12.2 357 25.3
2010-05-25 08:45:04 51°25.721 2°50.62 356.1 12.2 357 25.3
2010-05-25 08:45:10 51°25.741 2°50.618 356 12.2 357 25.5
2010-05-25 08:45:15 51°25.758 2°50.616 355.7 12.2 357 25.4
2010-05-25 08:45:20 51°25.775 2°50.615 355.9 12.2 357 25.3
2010-05-25 08:45:25 51°25.792 2°50.614 356.3 12.2 357 25.3
2010-05-25 08:45:30 51°25.809 2°50.612 356.4 12.2 357 25.6
2010-05-25 08:45:35 51°25.826 2°50.611 356.1 12.2 358 25.3
2010-05-25 08:45:40 51°25.843 2°50.61 356.3 12.2 356 25.6
2010-05-25 08:45:45 51°25.86 2°50.609 356.4 12.2 359 25.3
2010-05-25 08:45:50 51°25.877 2°50.607 356.5 12.2 356 25.4
2010-05-25 08:45:55 51°25.894 2°50.607 356.5 12.2 358 25.4
2010-05-25 08:46:00 51°25.911 2°50.605 356.4 12.3 357 25.4
2010-05-25 08:46:05 51°25.928 2°50.604 356.4 12.3 358 25.7
2010-05-25 08:46:10 51°25.944 2°50.603 356.5 12.3 358 25.4
2010-05-25 08:46:15 51°25.962 2°50.601 356.5 12.3 356 25.3
2010-05-25 08:46:20 51°25.979 2°50.601 356.4 12.3 358 25.3
2010-05-25 08:46:24 51°25.992 2°50.599 356.3 12.3 357 25.4
2010-05-25 08:46:30 51°26.013 2°50.598 356.5 12.3 358 25.4
2010-05-25 08:46:35 51°26.03 2°50.597 356.3 12.4 357 25.3
2010-05-25 08:46:40 51°26.047 2°50.595 356.1 12.4 357 25.3
2010-05-25 08:46:44 51°26.061 2°50.594 356 12.4 357 25.4
2010-05-25 08:46:50 51°26.081 2°50.592 355.9 12.4 357 25.4
2010-05-25 08:46:55 51°26.098 2°50.59 355.7 12.3 356 25.4
2010-05-25 08:47:00 51°26.115 2°50.588 355.7 12.4 357 25.6
2010-05-25 08:47:04 51°26.129 2°50.586 355.9 12.3 356 25.5
2010-05-25 08:47:10 51°26.15 2°50.585 356 12.3 356 25.5
2010-05-25 08:47:15 51°26.167 2°50.582 356 12.3 356 25.6
2010-05-25 08:47:20 51°26.184 2°50.58 355.8 12.3 356 25.7
2010-05-25 08:47:24 51°26.197 2°50.579 356 12.2 356 25.4
2010-05-25 08:47:30 51°26.218 2°50.576 355.9 12.3 355 25.4
2010-05-25 08:47:35 51°26.234 2°50.574 355.7 12.1 355 25.3
2010-05-25 08:47:40 51°26.251 2°50.571 355.8 12.1 355 25.3
2010-05-25 08:47:45 51°26.268 2°50.569 355.8 12.1 355 25.4
2010-05-25 08:47:50 51°26.285 2°50.567 355.7 12.1 355 25.5
2010-05-25 08:47:55 51°26.301 2°50.564 356.2 12.1 355 25.5
2010-05-25 08:48:00 51°26.318 2°50.562 356.4 12.1 355 25.6
2010-05-25 08:48:05 51°26.335 2°50.56 356.5 12.1 355 25.6
2010-05-25 08:48:10 51°26.351 2°50.558 356.7 12.1 355 25.5
2010-05-25 08:48:15 51°26.368 2°50.556 356.5 12.1 356 25.5
2010-05-25 08:48:20 51°26.385 2°50.554 356.8 12.1 356 25.6
2010-05-25 08:48:24 51°26.398 2°50.552 356.8 12.1 356 25.6
2010-05-25 08:48:30 51°26.418 2°50.55 357.2 12.1 356 25.7
2010-05-25 08:48:35 51°26.435 2°50.548 357.1 12.1 356 25.6
2010-05-25 08:48:40 51°26.451 2°50.546 356.9 12.1 356 25.6
2010-05-25 08:48:44 51°26.465 2°50.544 356.7 12.1 355 25.4
2010-05-25 08:48:50 51°26.485 2°50.541 356.5 12.1 355 25.5
2010-05-25 08:48:55 51°26.502 2°50.539 356.4 12.1 356 25.3
2010-05-25 08:49:00 51°26.518 2°50.537 356.5 12.1 355 25.2
2010-05-25 08:49:04 51°26.532 2°50.535 356.5 12.1 356 25.5
2010-05-25 08:49:09 51°26.548 2°50.533 356.5 12.1 356 25.3
2010-05-25 08:49:15 51°26.568 2°50.531 356.7 12.1 355 25.2
2010-05-25 08:49:20 51°26.585 2°50.529 356.6 12.1 355 24.8
2010-05-25 08:49:25 51°26.602 2°50.527 356.4 12.1 356 23.7
2010-05-25 08:49:30 51°26.619 2°50.525 356.5 12.1 355 23.4
2010-05-25 08:49:35 51°26.636 2°50.523 356.5 12.1 355 25.3
2010-05-25 08:49:40 51°26.652 2°50.521 356.3 12.1 355 25.3
2010-05-25 08:49:45 51°26.669 2°50.518 356.1 12.1 355 25.2
2010-05-25 08:49:50 51°26.686 2°50.516 356.1 12.1 355 25.2
2010-05-25 08:49:55 51°26.702 2°50.514 356.3 12 355 24.9
2010-05-25 08:50:00 51°26.719 2°50.511 356.3 12 355 24.1
2010-05-25 08:50:05 51°26.736 2°50.509 356.1 12.1 355 25.1
2010-05-25 08:50:09 51°26.749 2°50.507 355.9 12.1 355 25
2010-05-25 08:50:15 51°26.769 2°50.504 356.1 12.1 355 23.9
2010-05-25 08:50:20 51°26.786 2°50.502 356.1 12.1 355 22.5
2010-05-25 08:50:24 51°26.799 2°50.5 356 12 356 24.1
2010-05-25 08:50:30 51°26.819 2°50.497 356.5 12 355 25.3
2010-05-25 08:50:35 51°26.836 2°50.495 356.4 12 355 25
2010-05-25 08:50:40 51°26.853 2°50.492 356.2 12.1 354 24.3
2010-05-25 08:50:44 51°26.866 2°50.49 356 12.1 355 23.1
2010-05-25 08:50:50 51°26.886 2°50.488 356.3 12.1 356 21
2010-05-25 08:50:55 51°26.902 2°50.486 356.6 12 355 22.5
2010-05-25 08:51:00 51°26.919 2°50.484 356.9 12.1 356 21.9
2010-05-25 08:51:05 51°26.936 2°50.481 356.3 12.1 355 20.1
2010-05-25 08:51:09 51°26.949 2°50.48 356.7 12.1 356 21.3
2010-05-25 08:51:15 51°26.969 2°50.478 356.5 12 356 21.3
2010-05-25 08:51:20 51°26.986 2°50.475 356.5 12.1 355 21.1
2010-05-25 08:51:24 51°26.999 2°50.474 356.5 12.1 357 20
2010-05-25 08:51:30 51°27.019 2°50.472 356.8 12.1 356 19.3
2010-05-25 08:51:35 51°27.036 2°50.471 356.9 12 357 19.7
2010-05-25 08:51:40 51°27.053 2°50.469 357.2 12.1 356 21.4
2010-05-25 08:51:45 51°27.069 2°50.466 356.8 12 355 21.7
2010-05-25 08:51:50 51°27.086 2°50.464 356.2 12 356 19.9
2010-05-25 08:51:55 51°27.102 2°50.462 356.3 12 355 21
2010-05-25 08:52:00 51°27.119 2°50.459 356.1 12 355 21.8
2010-05-25 08:52:05 51°27.135 2°50.456 356 12.1 354 22.8
2010-05-25 08:52:09 51°27.149 2°50.454 355.7 12 355 22.4
2010-05-25 08:52:15 51°27.169 2°50.452 356.3 12 355 21.9
2010-05-25 08:52:20 51°27.186 2°50.45 356 12.1 355 22.8
2010-05-25 08:52:25 51°27.202 2°50.448 356.5 12.1 356 23.5
2010-05-25 08:52:30 51°27.219 2°50.445 356.8 12.1 355 23.6
2010-05-25 08:52:35 51°27.236 2°50.443 356 12.1 355 23.6
2010-05-25 08:52:40 51°27.252 2°50.441 356.8 12.1 355 23.5
2010-05-25 08:52:44 51°27.266 2°50.439 356.5 12.1 355 24.1
2010-05-25 08:52:50 51°27.286 2°50.436 356.5 12.1 355 24.2
2010-05-25 08:52:55 51°27.303 2°50.435 356.6 12.1 355 24.2
2010-05-25 08:53:00 51°27.319 2°50.432 356.3 12.1 355 23.8
2010-05-25 08:53:05 51°27.336 2°50.43 356.5 12.2 355 24.2
2010-05-25 08:53:09 51°27.349 2°50.428 356.1 12.2 355 24.1
2010-05-25 08:53:15 51°27.37 2°50.426 356.4 12.2 355 24.1
2010-05-25 08:53:20 51°27.387 2°50.423 356.2 12.2 355 24.3
2010-05-25 08:53:24 51°27.4 2°50.421 356.1 12.2 355 24.6
2010-05-25 08:53:30 51°27.42 2°50.418 356.1 12.1 355 24.6
2010-05-25 08:53:35 51°27.437 2°50.416 356.3 12.2 355 25.1
2010-05-25 08:53:40 51°27.454 2°50.414 356.3 12.2 355 25.1
2010-05-25 08:53:44 51°27.467 2°50.412 356.5 12.2 355 25.3
2010-05-25 08:53:50 51°27.488 2°50.41 355.9 12.2 356 25.4
2010-05-25 08:53:55 51°27.505 2°50.407 356.3 12.3 355 25.8
2010-05-25 08:54:00 51°27.522 2°50.405 356.4 12.3 355 25.9
2010-05-25 08:54:04 51°27.535 2°50.403 356.4 12.3 354 26.2
2010-05-25 08:54:10 51°27.555 2°50.4 356 12.3 355 26.1
2010-05-25 08:54:15 51°27.572 2°50.397 355.7 12.3 354 26.4
2010-05-25 08:54:20 51°27.589 2°50.395 355.8 12.2 356 26.3
2010-05-25 08:54:25 51°27.606 2°50.391 356.1 12.3 353 26.2
2010-05-25 08:54:30 51°27.623 2°50.39 356.1 12.3 356 26
2010-05-25 08:54:35 51°27.64 2°50.387 356.1 12.3 355 26.4
2010-05-25 08:54:40 51°27.657 2°50.385 356.2 12.3 355 26.6
2010-05-25 08:54:45 51°27.674 2°50.382 356.4 12.3 355 26.8
2010-05-25 08:54:50 51°27.691 2°50.38 356.1 12.2 355 27.7
2010-05-25 08:54:55 51°27.708 2°50.378 356.4 12.2 355 28.7
2010-05-25 08:55:00 51°27.725 2°50.375 356.3 12.3 355 28.8
2010-05-25 08:55:04 51°27.738 2°50.373 356.3 12.3 354 29.2
2010-05-25 08:55:10 51°27.759 2°50.37 355.7 12.3 355 29.5
2010-05-25 08:55:15 51°27.776 2°50.368 356.2 12.3 355 29.7
2010-05-25 08:55:20 51°27.793 2°50.365 356.2 12.3 354 30
2010-05-25 08:55:24 51°27.806 2°50.364 356 12.3 356 30.4
2010-05-25 08:55:29 51°27.823 2°50.361 356.4 12.3 355 30.3
2010-05-25 08:55:35 51°27.844 2°50.359 356.5 12.3 356 30.5
2010-05-25 08:55:40 51°27.861 2°50.356 356.3 12.4 355 30.3
2010-05-25 08:55:45 51°27.878 2°50.354 356.4 12.4 356 30.5
2010-05-25 08:55:49 51°27.892 2°50.352 356.5 12.4 354 30.6
2010-05-25 08:55:55 51°27.912 2°50.35 356.1 12.4 356 30.5
2010-05-25 08:56:00 51°27.93 2°50.347 356.5 12.4 354 30.2
2010-05-25 08:56:05 51°27.947 2°50.345 356.2 12.4 355 29.9
2010-05-25 08:56:10 51°27.964 2°50.341 356.1 12.4 353 29.4
2010-05-25 08:56:15 51°27.981 2°50.339 355.9 12.4 356 29.2
2010-05-25 08:56:20 51°27.998 2°50.337 356.2 12.4 356 28.9
2010-05-25 08:56:25 51°28.016 2°50.337 357.6 12.4 358 29
2010-05-25 08:56:30 51°28.033 2°50.335 358.3 12.4 358 29.2
2010-05-25 08:56:35 51°28.05 2°50.335 358.6 12.5 359 29.1
2010-05-25 08:56:40 51°28.067 2°50.334 359 12.5 359 29
2010-05-25 08:56:45 51°28.085 2°50.334 359.5 12.5 -999 29.2
2010-05-25 08:56:49 51°28.099 2°50.334 359.8 12.5 -999 29.3
2010-05-25 08:56:55 51°28.119 2°50.334 359.8 12.5 359 29.4
2010-05-25 08:57:00 51°28.137 2°50.333 359.7 12.5 359 29.3
2010-05-25 08:57:05 51°28.154 2°50.333 359.6 12.5 359 29.3
2010-05-25 08:57:10 51°28.171 2°50.332 359.5 12.5 359 29.2
2010-05-25 08:57:15 51°28.189 2°50.332 359.2 12.5 359 29.1
2010-05-25 08:57:20 51°28.206 2°50.331 359.4 12.5 359 29.1
2010-05-25 08:57:24 51°28.22 2°50.331 359.3 12.5 358 28.6
2010-05-25 08:57:30 51°28.24 2°50.33 359.1 12.4 359 28.9
2010-05-25 08:57:35 51°28.258 2°50.329 359 12.5 359 29.1
2010-05-25 08:57:40 51°28.275 2°50.329 359 12.5 359 29.2
2010-05-25 08:57:45 51°28.292 2°50.328 359.1 12.5 359 29.2
2010-05-25 08:57:49 51°28.306 2°50.328 359.2 12.6 359 28.9
2010-05-25 08:57:55 51°28.327 2°50.327 359.4 12.6 359 29.3
2010-05-25 08:58:00 51°28.344 2°50.327 359.2 12.5 359 29.5
2010-05-25 08:58:04 51°28.358 2°50.327 359.6 12.5 359 29.7
2010-05-25 08:58:09 51°28.376 2°50.326 359.5 12.5 359 29.7
2010-05-25 08:58:15 51°28.396 2°50.326 359.4 12.5 359 29.6
2010-05-25 08:58:20 51°28.414 2°50.326 359.4 12.5 -999 29.9
2010-05-25 08:58:24 51°28.428 2°50.326 359.6 12.5 -999 29.6
2010-05-25 08:58:29 51°28.445 2°50.326 0.1 12.5 1 29.3
2010-05-25 08:58:35 51°28.466 2°50.327 0.1 12.4 2 29.3
2010-05-25 08:58:40 51°28.483 2°50.328 0.5 12.4 2 29.1
2010-05-25 08:58:45 51°28.5 2°50.329 0.1 12.4 2 29.2
2010-05-25 08:58:50 51°28.517 2°50.33 0.1 12.4 2 29.7